Time;durP1;ratioP1;P1;durP2;ratioP2;P2;SDS_P1;SDS_P2;PMS_P1;PMS_P2;Temp;Humidity;BMP_temperature;BMP_pressure;BME280_temperature;BME280_humidity;BME280_pressure;Samples;Min_cycle;Max_cycle;Signal;HPM_P1;HPM_P2
2022/09/02 00:00:40;;;;;;;2.20;0.73;;;16.00;80.10;;;;;;4163211;28;20480;-87
2022/09/02 00:02:43;;;;;;;1.70;0.70;;;16.00;80.30;;;;;;4164612;28;20046;-87
2022/09/02 00:04:44;;;;;;;2.92;0.82;;;16.00;80.40;;;;;;4164144;28;20124;-87
2022/09/02 00:06:46;;;;;;;1.77;0.75;;;15.90;80.40;;;;;;4163673;28;20053;-86
2022/09/02 00:08:49;;;;;;;5.93;0.80;;;15.90;80.50;;;;;;4150056;28;20046;-87
2022/09/02 00:10:50;;;;;;;4.60;0.80;;;15.90;80.70;;;;;;4150869;28;20029;-87
2022/09/02 00:12:52;;;;;;;1.10;0.70;;;15.90;80.80;;;;;;4153293;28;20502;-87
2022/09/02 00:14:52;;;;;;;2.40;0.70;;;15.50;80.60;;;;;;4153569;28;20049;-87
2022/09/02 00:16:53;;;;;;;5.45;0.73;;;15.80;80.90;;;;;;4150373;28;20053;-88
2022/09/02 00:18:56;;;;;;;1.88;0.80;;;15.80;81.00;;;;;;4134370;28;20046;-87
2022/09/02 00:20:58;;;;;;;1.67;0.80;;;15.80;81.20;;;;;;4151425;28;20450;-87
2022/09/02 00:22:59;;;;;;;1.33;0.70;;;15.80;81.40;;;;;;4150241;28;20494;-87
2022/09/02 00:25:00;;;;;;;1.17;0.85;;;15.70;81.40;;;;;;4151132;28;20046;-87
2022/09/02 00:27:01;;;;;;;0.90;0.65;;;15.70;81.40;;;;;;4150775;28;20127;-88
2022/09/02 00:29:01;;;;;;;1.00;0.60;;;15.70;81.50;;;;;;4151284;28;20046;-86
2022/09/02 00:31:02;;;;;;;1.42;0.70;;;15.60;81.50;;;;;;4166918;28;20049;-87
2022/09/02 00:33:04;;;;;;;2.47;0.73;;;15.60;81.90;;;;;;4150092;28;20045;-87
2022/09/02 00:35:06;;;;;;;0.82;0.70;;;15.60;81.90;;;;;;4151584;28;20471;-86
2022/09/02 00:37:07;;;;;;;1.23;0.98;;;15.60;82.00;;;;;;4165635;28;20168;-86
2022/09/02 00:39:09;;;;;;;2.45;0.70;;;15.50;82.00;;;;;;4151373;28;20042;-86
2022/09/02 00:41:11;;;;;;;1.48;0.70;;;15.50;82.00;;;;;;4134271;28;20046;-86
2022/09/02 00:43:21;;;;;;;1.50;0.70;;;15.50;82.10;;;;;;4168689;28;20053;-86
2022/09/02 00:45:22;;;;;;;3.28;0.60;;;15.40;82.30;;;;;;4152167;28;20057;-85
2022/09/02 00:47:24;;;;;;;1.55;0.70;;;15.40;82.30;;;;;;4169777;28;20042;-87
2022/09/02 00:49:32;;;;;;;2.95;0.95;;;15.40;82.40;;;;;;4175856;28;20482;-87
2022/09/02 00:51:40;;;;;;;4.05;0.85;;;15.30;82.60;;;;;;4168107;28;20045;-87
2022/09/02 00:53:43;;;;;;;0.88;0.80;;;15.30;82.70;;;;;;4183599;28;20402;-86
2022/09/02 00:55:47;;;;;;;1.10;0.90;;;15.30;82.90;;;;;;4165524;28;20499;-86
2022/09/02 00:57:55;;;;;;;0.55;0.50;;;15.20;83.00;;;;;;4183544;28;20033;-85
2022/09/02 01:00:20;;;;;;;2.58;0.80;;;15.20;83.10;;;;;;4183652;28;20041;-86
2022/09/02 01:02:22;;;;;;;2.17;0.77;;;15.20;83.70;;;;;;4184639;28;20045;-84
2022/09/02 01:04:24;;;;;;;0.98;0.80;;;14.80;83.00;;;;;;4168616;28;20063;-86
2022/09/02 01:06:27;;;;;;;1.38;0.80;;;15.00;83.40;;;;;;4185270;28;20120;-86
2022/09/02 01:08:33;;;;;;;3.33;0.88;;;15.00;83.40;;;;;;4168677;28;20056;-86
2022/09/02 01:10:34;;;;;;;1.10;0.80;;;15.00;83.60;;;;;;4186822;28;20032;-87
2022/09/02 01:12:36;;;;;;;1.05;0.85;;;15.00;83.60;;;;;;4185566;28;20048;-87
2022/09/02 01:14:37;;;;;;;2.72;1.00;;;14.90;83.80;;;;;;4184071;28;20167;-87
2022/09/02 01:16:45;;;;;;;1.35;1.00;;;14.80;83.90;;;;;;4149362;28;20050;-87
2022/09/02 01:18:49;;;;;;;4.32;0.80;;;14.90;84.10;;;;;;4183755;28;20061;-87
2022/09/02 01:20:50;;;;;;;1.02;0.85;;;14.80;83.90;;;;;;4149062;28;20083;-87
2022/09/02 01:22:53;;;;;;;1.50;1.02;;;14.80;84.20;;;;;;4149416;28;20076;-86
2022/09/02 01:24:59;;;;;;;2.85;0.88;;;14.80;84.30;;;;;;4183617;28;20040;-86
2022/09/02 01:27:01;;;;;;;1.00;0.70;;;14.70;84.30;;;;;;4165522;28;20046;-87
2022/09/02 01:29:02;;;;;;;1.10;0.80;;;14.70;84.20;;;;;;4182972;28;20055;-87
2022/09/02 01:31:04;;;;;;;1.75;1.08;;;14.70;84.30;;;;;;4183195;28;20412;-86
2022/09/02 01:33:04;;;;;;;1.05;0.70;;;14.70;84.30;;;;;;4183141;28;20037;-86
2022/09/02 01:35:06;;;;;;;1.25;0.85;;;14.70;84.30;;;;;;4165203;28;20049;-86
2022/09/02 01:37:07;;;;;;;0.98;0.70;;;14.70;84.20;;;;;;4148870;28;20053;-86
2022/09/02 01:39:10;;;;;;;0.70;0.65;;;14.70;84.30;;;;;;4165307;28;20514;-86
2022/09/02 01:41:10;;;;;;;3.80;0.85;;;14.70;84.40;;;;;;4164950;28;20060;-86
2022/09/02 01:43:16;;;;;;;1.67;0.70;;;14.70;84.30;;;;;;4165484;28;20053;-86
2022/09/02 01:45:17;;;;;;;3.38;0.70;;;14.60;84.50;;;;;;4165332;28;20597;-86
2022/09/02 01:47:24;;;;;;;6.45;1.30;;;14.60;84.50;;;;;;4182554;28;20037;-86
2022/09/02 01:49:26;;;;;;;0.93;0.73;;;14.60;84.70;;;;;;4175841;28;20494;-86
2022/09/02 01:51:27;;;;;;;2.80;0.75;;;14.60;84.70;;;;;;4166890;28;20045;-86
2022/09/02 01:53:29;;;;;;;4.60;0.88;;;14.60;84.90;;;;;;4148806;28;20162;-87
2022/09/02 01:55:32;;;;;;;0.52;0.52;;;14.50;84.90;;;;;;4132871;28;20098;-86
2022/09/02 01:57:32;;;;;;;1.30;0.90;;;14.50;85.00;;;;;;4166571;28;20042;-86
2022/09/02 01:59:33;;;;;;;3.58;0.95;;;14.50;85.10;;;;;;4165773;28;20510;-86
2022/09/02 02:01:34;;;;;;;3.50;1.20;;;14.40;85.10;;;;;;4130944;28;20497;-86
2022/09/02 02:03:36;;;;;;;2.13;0.70;;;14.40;85.20;;;;;;4147001;28;20574;-86
2022/09/02 02:05:37;;;;;;;2.20;0.90;;;14.40;85.40;;;;;;4147621;28;20112;-87
2022/09/02 02:07:38;;;;;;;3.63;0.93;;;14.40;85.40;;;;;;4164062;28;20041;-86
2022/09/02 02:09:40;;;;;;;5.13;0.88;;;14.40;85.50;;;;;;4164876;28;20491;-86
2022/09/02 02:11:41;;;;;;;4.63;0.60;;;14.30;85.50;;;;;;4163444;28;20600;-86
2022/09/02 02:13:42;;;;;;;2.97;0.93;;;14.30;85.50;;;;;;4163407;28;20191;-86
2022/09/02 02:15:44;;;;;;;1.10;0.88;;;14.30;85.80;;;;;;4155518;28;20033;-87
2022/09/02 02:17:45;;;;;;;1.80;0.90;;;14.20;85.80;;;;;;4163122;28;20045;-86
2022/09/02 02:19:46;;;;;;;1.63;1.10;;;14.20;85.90;;;;;;4148342;28;20046;-86
2022/09/02 02:21:47;;;;;;;2.90;0.77;;;14.20;86.30;;;;;;4161559;28;20188;-86
2022/09/02 02:23:50;;;;;;;1.83;0.90;;;14.20;86.40;;;;;;4182674;28;20463;-86
2022/09/02 02:25:51;;;;;;;1.15;0.88;;;14.10;86.40;;;;;;4182452;28;20045;-86
2022/09/02 02:27:52;;;;;;;1.25;0.88;;;14.10;86.50;;;;;;4182048;28;20041;-86
2022/09/02 02:29:53;;;;;;;2.58;1.00;;;14.10;86.50;;;;;;4182316;28;20522;-86
2022/09/02 02:31:55;;;;;;;1.55;1.00;;;14.10;86.60;;;;;;4181646;28;20418;-86
2022/09/02 02:33:56;;;;;;;1.35;1.25;;;14.00;86.80;;;;;;4147589;28;20109;-87
2022/09/02 02:35:58;;;;;;;2.92;1.08;;;14.00;86.80;;;;;;4147648;28;20518;-87
2022/09/02 02:37:58;;;;;;;3.33;1.08;;;14.00;87.00;;;;;;4182145;28;20045;-86
2022/09/02 02:39:59;;;;;;;1.00;0.85;;;13.90;87.10;;;;;;4164170;28;20076;-86
2022/09/02 02:42:00;;;;;;;1.17;0.85;;;13.90;87.20;;;;;;4182094;28;20091;-86
2022/09/02 02:44:01;;;;;;;1.65;1.00;;;13.90;87.40;;;;;;4148142;28;20053;-86
2022/09/02 02:46:02;;;;;;;5.80;0.95;;;13.90;87.50;;;;;;4148028;28;20050;-86
2022/09/02 02:48:04;;;;;;;1.48;0.82;;;13.90;87.50;;;;;;4148906;28;20066;-86
2022/09/02 02:50:07;;;;;;;0.90;0.90;;;13.90;87.60;;;;;;4164922;28;20051;-86
2022/09/02 02:52:08;;;;;;;1.35;1.05;;;13.80;87.70;;;;;;4148275;28;20058;-86
2022/09/02 02:54:10;;;;;;;0.75;0.70;;;13.70;87.80;;;;;;4183587;28;20072;-86
2022/09/02 02:56:10;;;;;;;2.25;1.15;;;13.80;88.10;;;;;;4150422;28;20456;-86
2022/09/02 02:58:11;;;;;;;4.20;1.40;;;13.80;88.10;;;;;;4183322;28;20049;-87
2022/09/02 03:00:17;;;;;;;3.72;1.00;;;13.70;88.20;;;;;;4183109;28;20098;-86
2022/09/02 03:02:18;;;;;;;1.17;0.82;;;13.70;88.30;;;;;;4149022;28;20049;-86
2022/09/02 03:04:18;;;;;;;2.53;1.02;;;13.70;88.50;;;;;;4183250;28;20079;-86
2022/09/02 03:06:19;;;;;;;2.88;1.20;;;13.70;88.50;;;;;;4165373;28;20103;-86
2022/09/02 03:08:20;;;;;;;1.95;1.17;;;13.70;88.70;;;;;;4184130;28;20048;-87
2022/09/02 03:10:23;;;;;;;3.03;1.17;;;13.70;88.70;;;;;;4165815;28;20049;-86
2022/09/02 03:12:23;;;;;;;2.08;1.15;;;13.60;88.80;;;;;;4184834;28;20079;-86
2022/09/02 03:14:25;;;;;;;3.63;1.23;;;13.60;88.80;;;;;;4185799;28;20041;-86
2022/09/02 03:16:25;;;;;;;1.52;1.10;;;13.60;88.90;;;;;;4168406;28;20137;-86
2022/09/02 03:18:26;;;;;;;1.58;1.10;;;13.60;89.00;;;;;;4186114;28;20045;-86
2022/09/02 03:20:27;;;;;;;2.67;1.00;;;13.60;89.10;;;;;;4152214;28;20081;-86
2022/09/02 03:22:28;;;;;;;4.18;1.50;;;13.60;89.10;;;;;;4185943;28;20123;-86
2022/09/02 03:24:29;;;;;;;1.67;1.40;;;13.50;89.10;;;;;;4168541;28;20079;-86
2022/09/02 03:26:30;;;;;;;3.97;1.40;;;13.50;89.30;;;;;;4186315;28;20136;-87
2022/09/02 03:28:32;;;;;;;2.65;1.02;;;13.50;89.30;;;;;;4185756;28;20045;-86
2022/09/02 03:30:33;;;;;;;1.77;1.20;;;13.40;89.40;;;;;;4186274;28;20497;-86
2022/09/02 03:32:36;;;;;;;9.63;1.75;;;13.40;89.40;;;;;;4165696;28;20088;-86
2022/09/02 03:34:36;;;;;;;2.90;1.30;;;13.40;89.70;;;;;;4164167;28;20050;-86
2022/09/02 03:36:39;;;;;;;2.47;1.33;;;13.40;90.00;;;;;;4182045;28;20081;-85
2022/09/02 03:38:39;;;;;;;1.25;1.10;;;13.30;89.90;;;;;;4181820;28;20051;-86
2022/09/02 03:40:41;;;;;;;2.22;1.33;;;13.30;90.00;;;;;;4163410;28;20058;-86
2022/09/02 03:42:41;;;;;;;3.60;1.50;;;13.30;90.00;;;;;;4164259;28;20810;-86
2022/09/02 03:44:43;;;;;;;1.10;1.00;;;13.30;90.10;;;;;;4184874;28;20060;-86
2022/09/02 03:46:43;;;;;;;1.52;1.30;;;13.30;90.10;;;;;;4166756;28;20045;-86
2022/09/02 03:48:44;;;;;;;1.30;1.00;;;13.30;90.20;;;;;;4184087;28;20083;-86
2022/09/02 03:50:46;;;;;;;5.15;1.40;;;13.20;90.20;;;;;;4166924;28;20060;-86
2022/09/02 03:52:48;;;;;;;1.30;1.00;;;13.20;90.20;;;;;;4167047;28;20403;-86
2022/09/02 03:54:49;;;;;;;1.80;1.20;;;13.20;90.30;;;;;;4150230;28;20538;-86
2022/09/02 03:56:49;;;;;;;2.25;1.30;;;13.20;90.40;;;;;;4184861;28;20044;-87
2022/09/02 03:58:52;;;;;;;2.30;1.20;;;13.20;90.40;;;;;;4184867;28;20593;-86
2022/09/02 04:00:54;;;;;;;3.40;1.10;;;13.10;90.40;;;;;;4150734;28;20085;-86
2022/09/02 04:02:55;;;;;;;3.63;1.83;;;13.10;90.50;;;;;;4165795;28;20060;-86
2022/09/02 04:04:56;;;;;;;1.70;1.00;;;13.10;90.60;;;;;;4167020;28;20120;-86
2022/09/02 04:06:58;;;;;;;6.60;1.10;;;13.10;90.60;;;;;;4165971;28;20080;-86
2022/09/02 04:09:00;;;;;;;2.47;1.05;;;13.10;90.60;;;;;;4168028;28;20071;-86
2022/09/02 04:11:08;;;;;;;2.22;0.90;;;13.10;90.60;;;;;;4168116;28;20045;-86
2022/09/02 04:13:10;;;;;;;3.00;1.40;;;13.10;90.70;;;;;;4167894;28;20037;-86
2022/09/02 04:15:12;;;;;;;1.73;1.00;;;13.00;90.70;;;;;;4133861;28;20512;-86
2022/09/02 04:17:14;;;;;;;1.30;1.00;;;13.00;90.70;;;;;;4149725;28;20046;-86
2022/09/02 04:19:14;;;;;;;3.10;1.00;;;12.90;90.80;;;;;;4149394;28;20491;-86
2022/09/02 04:21:15;;;;;;;3.72;1.13;;;12.90;91.00;;;;;;4132424;28;20051;-86
2022/09/02 04:23:17;;;;;;;1.42;1.05;;;12.90;90.90;;;;;;4166046;28;20094;-86
2022/09/02 04:25:18;;;;;;;3.40;1.20;;;12.80;91.00;;;;;;4132559;28;20057;-85
2022/09/02 04:27:18;;;;;;;1.02;0.90;;;12.80;91.10;;;;;;4165777;28;20041;-86
2022/09/02 04:29:19;;;;;;;1.90;1.20;;;12.80;91.20;;;;;;4166833;28;20509;-86
2022/09/02 04:31:24;;;;;;;2.17;1.05;;;12.80;91.20;;;;;;4166382;28;20053;-86
2022/09/02 04:33:25;;;;;;;2.95;1.05;;;12.80;91.20;;;;;;4166313;28;20044;-86
2022/09/02 04:35:26;;;;;;;1.75;1.08;;;12.80;91.30;;;;;;4156765;28;20046;-87
2022/09/02 04:37:29;;;;;;;1.20;1.00;;;12.70;91.30;;;;;;4161698;28;20050;-86
2022/09/02 04:39:29;;;;;;;1.88;1.23;;;12.70;91.30;;;;;;4149402;28;20065;-86
2022/09/02 04:41:31;;;;;;;4.35;1.15;;;12.70;91.40;;;;;;4183709;28;20060;-86
2022/09/02 04:43:33;;;;;;;3.55;0.95;;;12.70;91.50;;;;;;4183861;28;20482;-86
2022/09/02 04:45:34;;;;;;;1.80;1.10;;;12.70;91.50;;;;;;4149970;28;20492;-85
2022/09/02 04:47:35;;;;;;;2.90;1.00;;;12.60;91.50;;;;;;4183592;28;20048;-86
2022/09/02 04:49:35;;;;;;;3.38;1.30;;;12.60;91.70;;;;;;4183951;28;20076;-86
2022/09/02 04:51:36;;;;;;;2.90;1.00;;;12.60;91.70;;;;;;4183880;28;20041;-86
2022/09/02 04:53:38;;;;;;;0.80;0.80;;;12.60;91.70;;;;;;4150161;28;20530;-86
2022/09/02 04:55:40;;;;;;;1.88;1.08;;;12.60;91.90;;;;;;4148780;28;20064;-85
2022/09/02 04:57:47;;;;;;;3.72;1.20;;;12.60;91.80;;;;;;4183398;28;20044;-85
2022/09/02 04:59:49;;;;;;;2.45;1.15;;;12.60;91.90;;;;;;4183967;28;20041;-85
2022/09/02 05:01:50;;;;;;;1.27;1.05;;;12.50;91.90;;;;;;4166293;28;20048;-86
2022/09/02 05:03:52;;;;;;;2.20;1.20;;;12.60;92.00;;;;;;4183197;28;20041;-86
2022/09/02 05:06:03;;;;;;;1.20;1.10;;;12.50;91.90;;;;;;4166383;28;20103;-86
2022/09/02 05:08:04;;;;;;;2.00;1.25;;;12.60;92.00;;;;;;4183701;28;20197;-86
2022/09/02 05:10:05;;;;;;;1.15;0.90;;;12.60;92.00;;;;;;4183492;28;20059;-86
2022/09/02 05:12:07;;;;;;;2.22;1.20;;;12.60;92.00;;;;;;4165832;28;20159;-86
2022/09/02 05:14:07;;;;;;;2.58;1.20;;;12.60;92.10;;;;;;4165995;28;20384;-86
2022/09/02 05:16:13;;;;;;;3.28;1.40;;;12.60;92.10;;;;;;4165772;28;20096;-86
2022/09/02 05:18:15;;;;;;;1.63;1.10;;;12.60;92.10;;;;;;4165907;28;20049;-86
2022/09/02 05:20:17;;;;;;;1.90;1.20;;;12.60;92.10;;;;;;4166431;28;20046;-86
2022/09/02 05:22:18;;;;;;;2.25;1.40;;;12.60;92.10;;;;;;4183978;28;20048;-86
2022/09/02 05:24:19;;;;;;;1.05;0.95;;;12.60;92.10;;;;;;4185555;28;20033;-86
2022/09/02 05:26:20;;;;;;;2.50;0.93;;;12.60;92.10;;;;;;4165271;28;20111;-86
2022/09/02 05:28:21;;;;;;;1.63;1.20;;;12.60;92.20;;;;;;4149447;28;20583;-86
2022/09/02 05:30:21;;;;;;;5.10;1.88;;;12.60;92.20;;;;;;4183544;28;20049;-86
2022/09/02 05:32:22;;;;;;;3.80;1.20;;;12.60;92.30;;;;;;4184598;28;20041;-86
2022/09/02 05:34:23;;;;;;;1.63;1.30;;;12.60;92.20;;;;;;4149784;28;20081;-86
2022/09/02 05:36:24;;;;;;;1.42;0.98;;;12.60;92.30;;;;;;4147959;28;20104;-87
2022/09/02 05:38:25;;;;;;;1.67;1.27;;;12.70;92.40;;;;;;4168540;28;20077;-86
2022/09/02 05:40:26;;;;;;;1.88;1.30;;;12.60;92.40;;;;;;4166602;28;20147;-87
2022/09/02 05:42:28;;;;;;;2.80;1.20;;;12.70;92.40;;;;;;4167591;28;20046;-86
2022/09/02 05:44:30;;;;;;;3.05;1.17;;;12.70;92.50;;;;;;4167366;28;20045;-87
2022/09/02 05:46:31;;;;;;;1.85;1.20;;;12.70;92.50;;;;;;4166972;28;20053;-87
2022/09/02 05:50:52;;;;;;;4.47;1.10;;;12.70;92.50;;;;;;4166706;28;20055;-87
2022/09/02 05:52:55;;;;;;;1.63;1.10;;;12.80;92.50;;;;;;4168244;28;20068;-87
2022/09/02 05:54:56;;;;;;;2.05;1.17;;;12.80;92.50;;;;;;4169613;28;20481;-86
2022/09/02 05:57:00;;;;;;;1.83;1.20;;;12.80;92.50;;;;;;4170959;28;20099;-87
2022/09/02 05:59:02;;;;;;;2.10;1.25;;;12.90;92.50;;;;;;4169044;28;20487;-89
2022/09/02 06:01:10;;;;;;;1.42;1.20;;;12.90;92.60;;;;;;4137110;28;20545;-88
2022/09/02 06:03:12;;;;;;;2.65;1.25;;;12.90;92.60;;;;;;4154682;28;20050;-88
2022/09/02 06:05:14;;;;;;;3.08;1.23;;;12.90;92.60;;;;;;4133416;28;20077;-88
2022/09/02 06:07:16;;;;;;;2.38;1.35;;;13.00;92.70;;;;;;4129456;28;20096;-88
2022/09/02 06:09:21;;;;;;;5.28;1.33;;;13.00;92.60;;;;;;4147658;28;20049;-90
2022/09/02 06:11:22;;;;;;;5.00;1.30;;;13.00;92.60;;;;;;4133721;28;20070;-93
2022/09/02 06:13:25;;;;;;;2.47;1.70;;;13.10;92.60;;;;;;4143368;28;20071;-93
2022/09/02 06:15:41;;;;;;;3.05;1.63;;;13.20;92.60;;;;;;4149238;28;20046;-90
2022/09/02 06:17:44;;;;;;;4.90;1.25;;;13.20;92.60;;;;;;4138132;28;20071;-91
2022/09/02 06:19:52;;;;;;;2.88;1.70;;;13.30;92.70;;;;;;4151479;28;20045;-94
2022/09/02 06:22:01;;;;;;;5.10;1.20;;;13.30;92.60;;;;;;4151784;28;20117;-92
2022/09/02 06:24:09;;;;;;;2.85;1.15;;;13.30;92.60;;;;;;4152880;28;20042;-92
2022/09/02 06:26:19;;;;;;;1.75;1.42;;;13.50;92.40;;;;;;4137192;28;20051;-91
2022/09/02 06:28:33;;;;;;;2.10;1.17;;;13.60;92.50;;;;;;4139097;28;20065;-92
2022/09/02 06:30:38;;;;;;;1.58;1.20;;;13.70;92.40;;;;;;4139883;28;20097;-91
2022/09/02 06:32:39;;;;;;;2.58;1.38;;;13.90;92.20;;;;;;4132005;28;20042;-90
2022/09/02 06:34:45;;;;;;;3.25;1.40;;;14.20;92.20;;;;;;4154073;28;20088;-90
2022/09/02 06:36:49;;;;;;;1.85;1.35;;;14.20;92.10;;;;;;4138123;28;20074;-89
2022/09/02 06:38:51;;;;;;;1.55;1.42;;;14.20;91.90;;;;;;4157416;28;20565;-92
2022/09/02 06:40:54;;;;;;;11.25;1.48;;;14.30;91.90;;;;;;4144379;28;20050;-91
2022/09/02 06:42:55;;;;;;;1.23;1.13;;;14.40;91.80;;;;;;4133724;28;20860;-90
2022/09/02 06:44:57;;;;;;;2.78;1.30;;;14.50;91.80;;;;;;4152155;28;20092;-91
2022/09/02 06:47:00;;;;;;;2.13;1.13;;;14.60;91.60;;;;;;4152548;28;20053;-92
2022/09/02 06:49:03;;;;;;;2.35;1.40;;;14.70;91.50;;;;;;4136522;28;20126;-91
2022/09/02 06:51:19;;;;;;;6.20;1.10;;;14.90;91.40;;;;;;4143775;28;20046;-90
2022/09/02 06:53:20;;;;;;;2.85;1.30;;;15.00;91.30;;;;;;4152891;28;20080;-92
2022/09/02 06:55:22;;;;;;;3.03;1.45;;;15.10;91.20;;;;;;4152369;28;20090;-95
2022/09/02 06:57:23;;;;;;;3.90;1.45;;;15.20;91.00;;;;;;4153328;28;20091;-89
2022/09/02 06:59:25;;;;;;;2.55;1.30;;;15.30;90.80;;;;;;4168515;28;20041;-90
2022/09/02 07:01:29;;;;;;;3.35;1.40;;;15.50;90.80;;;;;;4153751;28;20415;-91
2022/09/02 07:06:08;;;;;;;;;;;15.70;90.30;;;;;;4168566;28;20491;-91
2022/09/02 07:08:16;;;;;;;6.50;1.52;;;15.90;90.30;;;;;;4137425;28;20413;-91
2022/09/02 07:10:17;;;;;;;6.57;1.83;;;16.00;89.70;;;;;;4134801;28;20047;-90
2022/09/02 07:12:20;;;;;;;5.15;1.23;;;16.10;89.30;;;;;;4149623;28;20046;-90
2022/09/02 07:14:20;;;;;;;3.45;1.02;;;16.20;89.00;;;;;;4150217;28;20042;-87
2022/09/02 07:16:21;;;;;;;7.10;1.17;;;16.30;88.60;;;;;;4171016;28;20072;-86
2022/09/02 07:18:24;;;;;;;4.85;1.20;;;16.40;88.30;;;;;;4171951;28;20037;-86
2022/09/02 07:20:26;;;;;;;4.85;1.25;;;16.60;87.90;;;;;;4153323;28;20095;-86
2022/09/02 07:22:27;;;;;;;1.95;1.20;;;16.70;87.50;;;;;;4120716;28;20083;-86
2022/09/02 07:24:29;;;;;;;4.88;1.92;;;16.90;87.10;;;;;;4136496;28;20041;-85
2022/09/02 07:26:30;;;;;;;2.10;1.33;;;17.00;86.60;;;;;;4138678;28;20053;-86
2022/09/02 07:28:32;;;;;;;1.77;1.10;;;17.10;86.40;;;;;;4156525;28;20042;-85
2022/09/02 07:30:33;;;;;;;13.38;1.73;;;17.20;86.00;;;;;;4183679;28;20052;-85
2022/09/02 07:32:35;;;;;;;2.63;1.30;;;17.40;85.70;;;;;;4170843;28;20053;-85
2022/09/02 07:34:36;;;;;;;2.33;0.98;;;17.50;85.40;;;;;;4158434;28;20407;-85
2022/09/02 07:36:37;;;;;;;1.42;1.20;;;17.70;84.90;;;;;;4127966;28;20054;-85
2022/09/02 07:38:40;;;;;;;3.88;1.00;;;17.80;84.40;;;;;;4159222;28;21238;-85
2022/09/02 07:40:41;;;;;;;6.07;1.23;;;17.90;84.20;;;;;;4157045;28;20062;-86
2022/09/02 07:42:43;;;;;;;7.65;1.40;;;18.10;83.90;;;;;;4185348;28;20570;-86
2022/09/02 07:44:44;;;;;;;4.30;1.05;;;18.20;83.30;;;;;;4183511;28;20075;-86
2022/09/02 07:46:45;;;;;;;3.30;1.17;;;18.40;83.10;;;;;;4149951;28;20050;-87
2022/09/02 07:48:49;;;;;;;1.83;1.02;;;18.50;82.90;;;;;;4139422;28;20125;-86
2022/09/02 07:50:50;;;;;;;3.20;1.50;;;18.70;82.30;;;;;;4153144;28;20057;-86
2022/09/02 07:52:52;;;;;;;2.55;1.20;;;18.80;81.90;;;;;;4120008;28;20055;-85
2022/09/02 07:54:54;;;;;;;4.75;1.20;;;18.90;81.40;;;;;;4134658;28;20057;-85
2022/09/02 07:56:55;;;;;;;1.42;1.10;;;19.20;81.20;;;;;;4166612;28;20052;-84
2022/09/02 07:58:55;;;;;;;1.60;1.00;;;19.40;80.90;;;;;;4168859;28;20034;-86
2022/09/02 08:00:56;;;;;;;6.68;1.55;;;19.50;80.20;;;;;;4168427;28;20107;-86
2022/09/02 08:02:59;;;;;;;4.53;1.38;;;19.70;80.00;;;;;;4150580;28;20085;-86
2022/09/02 08:05:00;;;;;;;2.83;1.00;;;19.80;79.30;;;;;;4166237;28;20041;-86
2022/09/02 08:07:02;;;;;;;2.42;1.10;;;20.00;78.90;;;;;;4151904;28;20042;-86
2022/09/02 08:09:09;;;;;;;1.65;1.10;;;20.00;78.00;;;;;;4135326;28;20054;-86
2022/09/02 08:11:11;;;;;;;2.40;0.93;;;20.00;77.90;;;;;;4135058;28;20192;-86
2022/09/02 08:13:12;;;;;;;2.20;1.00;;;20.20;78.00;;;;;;4134771;28;20083;-86
2022/09/02 08:15:14;;;;;;;1.13;0.98;;;20.40;77.40;;;;;;4152621;28;20081;-86
2022/09/02 08:17:15;;;;;;;6.28;1.08;;;20.50;77.10;;;;;;4135965;28;20088;-86
2022/09/02 08:19:15;;;;;;;1.42;1.00;;;20.70;77.30;;;;;;4120920;28;20129;-86
2022/09/02 08:21:17;;;;;;;2.55;1.00;;;20.90;76.20;;;;;;4163332;28;20498;-86
2022/09/02 08:23:18;;;;;;;5.45;1.10;;;21.00;75.80;;;;;;4154847;28;20116;-85
2022/09/02 08:25:19;;;;;;;3.13;0.90;;;21.20;75.80;;;;;;4159214;28;20086;-85
2022/09/02 08:27:21;;;;;;;2.75;1.20;;;21.50;75.60;;;;;;4163666;28;20091;-85
2022/09/02 08:29:22;;;;;;;0.98;0.88;;;21.60;74.70;;;;;;4154662;28;20157;-85
2022/09/02 08:31:23;;;;;;;3.25;0.98;;;21.70;74.40;;;;;;4166128;28;20056;-85
2022/09/02 08:33:29;;;;;;;1.33;1.10;;;21.80;74.20;;;;;;4158891;28;20038;-85
2022/09/02 08:35:30;;;;;;;2.95;1.10;;;22.10;73.50;;;;;;4133803;28;20054;-85
2022/09/02 08:37:32;;;;;;;5.65;1.08;;;22.30;73.50;;;;;;4156557;28;20052;-86
2022/09/02 08:39:33;;;;;;;4.75;1.10;;;22.40;72.40;;;;;;4139766;28;20125;-86
2022/09/02 08:41:47;;;;;;;5.78;0.90;;;22.40;71.60;;;;;;4168732;28;20049;-85
2022/09/02 08:43:54;;;;;;;2.17;0.88;;;22.40;70.80;;;;;;4151850;28;20052;-86
2022/09/02 08:45:58;;;;;;;1.40;1.00;;;22.40;71.10;;;;;;4164964;28;20740;-86
2022/09/02 08:48:44;;;;;;;3.45;0.90;;;22.60;71.00;;;;;;4168491;28;20045;-86
2022/09/02 08:50:47;;;;;;;7.93;1.10;;;22.80;70.40;;;;;;4125358;28;20054;-85
2022/09/02 08:53:08;;;;;;;3.78;0.95;;;23.20;70.60;;;;;;4146605;28;20496;-85
2022/09/02 08:55:24;;;;;;;2.53;0.98;;;23.30;68.80;;;;;;4143094;28;20551;-85
2022/09/02 08:57:26;;;;;;;6.13;1.17;;;23.40;68.80;;;;;;4129339;28;20078;-84
2022/09/02 08:59:30;;;;;;;1.63;0.80;;;23.50;69.40;;;;;;4146421;28;20465;-85
2022/09/02 09:01:31;;;;;;;4.78;0.98;;;23.70;68.30;;;;;;4143972;28;20050;-85
2022/09/02 09:03:53;;;;;;;1.38;0.90;;;23.90;68.30;;;;;;4149132;28;20495;-86
2022/09/02 09:06:06;;;;;;;7.32;1.10;;;24.00;66.00;;;;;;4147205;28;20048;-85
2022/09/02 09:08:22;;;;;;;4.68;1.10;;;24.00;65.90;;;;;;4151473;28;20053;-84
2022/09/02 09:10:25;;;;;;;5.40;1.13;;;24.20;66.20;;;;;;4152750;28;20184;-85
2022/09/02 09:12:31;;;;;;;2.47;0.90;;;24.30;65.80;;;;;;4144697;28;20057;-84
2022/09/02 09:14:52;;;;;;;4.13;0.88;;;24.50;66.00;;;;;;4168933;28;20150;-85
2022/09/02 09:17:18;;;;;;;3.35;1.10;;;24.60;64.80;;;;;;4116398;28;20053;-85
2022/09/02 09:19:57;;;;;;;3.67;0.98;;;24.60;63.70;;;;;;4168641;28;20529;-85
2022/09/02 09:22:02;;;;;;;2.88;0.90;;;24.60;62.80;;;;;;4086378;29;20048;-85
2022/09/02 09:24:09;;;;;;;10.13;0.90;;;24.80;64.50;;;;;;4123387;28;20137;-85
2022/09/02 09:26:15;;;;;;;5.03;1.00;;;25.10;63.50;;;;;;4152628;28;20052;-84
2022/09/02 09:28:16;;;;;;;5.38;1.15;;;25.50;63.00;;;;;;4163904;28;20384;-85
2022/09/02 09:30:18;;;;;;;1.38;0.80;;;25.70;62.40;;;;;;4145569;28;20096;-85
2022/09/02 09:32:37;;;;;;;4.53;1.52;;;25.80;62.00;;;;;;4146621;28;20460;-85
2022/09/02 09:34:58;;;;;;;1.70;1.00;;;26.10;60.20;;;;;;4155292;28;20494;-84
2022/09/02 09:36:59;;;;;;;1.75;1.20;;;26.50;60.10;;;;;;4155658;28;20092;-85
2022/09/02 09:39:27;;;;;;;3.08;0.77;;;26.70;59.50;;;;;;4156506;28;20088;-85
2022/09/02 09:41:29;;;;;;;3.13;0.80;;;27.10;57.60;;;;;;4163512;28;20056;-85
2022/09/02 09:43:30;;;;;;;2.25;0.80;;;27.10;57.50;;;;;;4143149;28;20050;-85
2022/09/02 09:45:43;;;;;;;4.75;0.70;;;27.20;57.00;;;;;;4159454;28;20052;-86
2022/09/02 09:47:44;;;;;;;3.45;0.95;;;27.30;55.90;;;;;;4146175;28;20085;-86
2022/09/02 09:49:48;;;;;;;3.17;0.80;;;27.50;56.40;;;;;;4163544;28;20037;-86
2022/09/02 09:51:59;;;;;;;5.22;0.85;;;27.70;56.10;;;;;;4140532;28;20071;-85
2022/09/02 09:54:24;;;;;;;1.48;0.93;;;27.70;53.60;;;;;;4162460;28;20049;-86
2022/09/02 09:56:28;;;;;;;2.78;1.27;;;27.60;53.50;;;;;;4149405;28;20045;-86
2022/09/02 09:58:38;;;;;;;0.88;0.80;;;27.30;54.20;;;;;;4145190;28;20053;-85
2022/09/02 10:00:40;;;;;;;2.60;1.02;;;27.20;54.10;;;;;;4164964;28;20049;-85
2022/09/02 10:02:49;;;;;;;2.90;0.90;;;27.10;53.90;;;;;;4165284;28;20112;-85
2022/09/02 10:05:14;;;;;;;1.85;0.70;;;26.80;53.50;;;;;;4136898;28;20042;-87
2022/09/02 10:07:34;;;;;;;2.08;0.88;;;27.20;51.90;;;;;;4156749;28;20624;-87
2022/09/02 10:09:36;;;;;;;1.92;0.60;;;27.40;52.90;;;;;;4147355;28;20042;-86
2022/09/02 10:11:38;;;;;;;6.72;0.98;;;27.40;53.10;;;;;;4166378;28;20045;-87
2022/09/02 10:13:39;;;;;;;4.43;0.82;;;27.50;53.00;;;;;;4163351;28;20045;-87
2022/09/02 10:16:10;;;;;;;3.70;1.10;;;27.60;52.70;;;;;;4136449;28;20050;-87
2022/09/02 10:18:23;;;;;;;9.70;1.27;;;27.90;52.20;;;;;;4136734;28;20053;-86
2022/09/02 10:20:35;;;;;;;1.83;0.70;;;27.90;51.00;;;;;;4150413;28;20054;-86
2022/09/02 10:23:01;;;;;;;3.58;0.80;;;27.70;51.80;;;;;;4150001;28;20054;-87
2022/09/02 10:25:20;;;;;;;3.67;0.75;;;27.80;51.60;;;;;;4149781;28;20120;-87
2022/09/02 10:27:36;;;;;;;4.00;0.88;;;28.00;51.70;;;;;;4155968;28;20124;-87
2022/09/02 10:29:46;;;;;;;3.45;0.82;;;28.10;50.80;;;;;;4123374;28;20069;-86
2022/09/02 10:31:50;;;;;;;2.50;0.90;;;28.20;51.60;;;;;;4128816;28;20462;-88
2022/09/02 10:34:28;;;;;;;2.95;1.77;;;28.40;50.90;;;;;;4135537;28;20042;-87
2022/09/02 10:36:40;;;;;;;0.98;0.77;;;28.50;49.50;;;;;;4144601;28;20177;-88
2022/09/02 10:38:47;;;;;;;1.38;0.68;;;28.50;49.50;;;;;;4134510;28;20386;-88
2022/09/02 10:41:32;;;;;;;4.28;0.60;;;28.50;48.60;;;;;;4161332;28;20136;-87
2022/09/02 10:43:45;;;;;;;1.38;0.60;;;28.60;48.30;;;;;;4136974;28;20043;-88
2022/09/02 10:45:51;;;;;;;4.43;0.82;;;28.70;49.60;;;;;;4140009;28;20112;-87
2022/09/02 10:48:13;;;;;;;2.38;0.60;;;29.00;48.70;;;;;;4138578;28;20068;-86
2022/09/02 10:50:33;;;;;;;1.05;0.70;;;28.90;48.20;;;;;;4146288;28;20129;-87
2022/09/02 10:52:47;;;;;;;2.33;0.73;;;28.40;47.20;;;;;;4164047;28;20053;-88